Anemona — 3EUT9 — position and weather

sailwx.info

Track history (hours):
 
Tides and Currents Weather Stations Pressure Air Temp Water Temp Dewpoint Dewpoint Depression Visibility Wind Speed Wind Dir Waves Ship Positions

Anemona

Last reported at 2017-Feb-19 19:21 UTC. Time now 2017-Feb-25 09:06 UTC.
Position S 26°48' E 153°53'.

Length 192 m; draft 11.4 m.

Type: Cargo ship. MMSI: 355664000.

Date/timePositionNaut miles runAvg speedWind from/ knotsBaromVisibWave heightAir tempDewpointWater temp
2017-Feb-19 19:21S 26°48' E 153°53'8 9.4
2017-Feb-19 18:31S 26°56' E 153°52'9 9.4
2017-Feb-19 17:33S 27°05' E 153°52'9 9.0
2017-Feb-19 16:34S 27°14' E 153°51'19 9.3
2017-Feb-19 14:30S 27°33' E 153°50'9 9.4
2017-Feb-19 13:34S 27°42' E 153°49'10 9.2
2017-Feb-19 12:31S 27°51' E 153°49'9 9.8
2017-Feb-19 11:33S 28°01' E 153°48'10 9.7
2017-Feb-19 10:31S 28°11' E 153°48'262 9.2
2017-Feb-18 06:08S 32°26' E 152°39'5 8.7
2017-Feb-18 05:33S 32°30' E 152°37'9 9.1
2017-Feb-18 04:34S 32°39' E 152°33'1110.5
2017-Feb-18 03:34S 32°49' E 152°29'1010.2
2017-Feb-18 02:33S 32°58' E 152°23'9 9.2
2017-Feb-18 01:33S 33°06' E 152°19'9 8.8
2017-Feb-18 00:34S 33°15' E 152°15'10 9.0
2017-Feb-17 23:30S 33°23' E 152°11'9 9.2
2017-Feb-17 22:29S 33°32' E 152°06'9 9.4
2017-Feb-17 21:33S 33°40' E 152°02'14 9.5
2017-Feb-17 20:06S 33°53' E 151°56'5 9.6
2017-Feb-17 19:33S 33°58' E 151°54'10 9.6
2017-Feb-17 18:33S 34°07' E 151°49'13 9.6
2017-Feb-17 17:09S 34°19' E 151°43'102 7.5
2017-Feb-17 03:34S 35°54' E 150°56'1110.0
2017-Feb-17 02:29S 36°03' E 150°50'  
2017-Feb-10 15:30S 33°41' E 152°12'1414.8
2017-Feb-10 14:33S 33°28' E 152°19'1515.4
2017-Feb-10 13:33S 33°14' E 152°27'1615.6
2017-Feb-10 12:33S 32°60' E 152°34'1615.8
2017-Feb-10 11:33S 32°45' E 152°42'1615.9
2017-Feb-10 10:33S 32°31' E 152°50'1515.5
2017-Feb-10 09:33S 32°16' E 152°56'1515.0
2017-Feb-10 08:33S 32°02' E 153°01'1514.8
2017-Feb-10 07:33S 31°48' E 153°07'1514.5
2017-Feb-10 06:33S 31°34' E 153°13'  
Track history (hours):
 
Tides and Currents Weather Stations Pressure Air Temp Water Temp Dewpoint Dewpoint Depression Visibility Wind Speed Wind Dir Waves Ship Positions

Anemona

Last reported at 2017-Feb-19 19:21 UTC. Time now 2017-Feb-25 09:06 UTC.
Position S 26°48' E 153°53'.

Length 192 m; draft 11.4 m.

Type: Cargo ship. MMSI: 355664000.

Date/timePositionNaut miles runAvg speedWind from/ knotsBaromVisibWave heightAir tempDewpointWater temp
2017-Feb-19 19:21S 26°48' E 153°53'8 9.4
2017-Feb-19 18:31S 26°56' E 153°52'9 9.4
2017-Feb-19 17:33S 27°05' E 153°52'9 9.0
2017-Feb-19 16:34S 27°14' E 153°51'19 9.3
2017-Feb-19 14:30S 27°33' E 153°50'9 9.4
2017-Feb-19 13:34S 27°42' E 153°49'10 9.2
2017-Feb-19 12:31S 27°51' E 153°49'9 9.8
2017-Feb-19 11:33S 28°01' E 153°48'10 9.7
2017-Feb-19 10:31S 28°11' E 153°48'262 9.2
2017-Feb-18 06:08S 32°26' E 152°39'5 8.7
2017-Feb-18 05:33S 32°30' E 152°37'9 9.1
2017-Feb-18 04:34S 32°39' E 152°33'1110.5
2017-Feb-18 03:34S 32°49' E 152°29'1010.2
2017-Feb-18 02:33S 32°58' E 152°23'9 9.2
2017-Feb-18 01:33S 33°06' E 152°19'9 8.8
2017-Feb-18 00:34S 33°15' E 152°15'10 9.0
2017-Feb-17 23:30S 33°23' E 152°11'9 9.2
2017-Feb-17 22:29S 33°32' E 152°06'9 9.4
2017-Feb-17 21:33S 33°40' E 152°02'14 9.5
2017-Feb-17 20:06S 33°53' E 151°56'5 9.6
2017-Feb-17 19:33S 33°58' E 151°54'10 9.6
2017-Feb-17 18:33S 34°07' E 151°49'13 9.6
2017-Feb-17 17:09S 34°19' E 151°43'102 7.5
2017-Feb-17 03:34S 35°54' E 150°56'1110.0
2017-Feb-17 02:29S 36°03' E 150°50'  
2017-Feb-10 15:30S 33°41' E 152°12'1414.8
2017-Feb-10 14:33S 33°28' E 152°19'1515.4
2017-Feb-10 13:33S 33°14' E 152°27'1615.6
2017-Feb-10 12:33S 32°60' E 152°34'1615.8
2017-Feb-10 11:33S 32°45' E 152°42'1615.9
2017-Feb-10 10:33S 32°31' E 152°50'1515.5
2017-Feb-10 09:33S 32°16' E 152°56'1515.0
2017-Feb-10 08:33S 32°02' E 153°01'1514.8
2017-Feb-10 07:33S 31°48' E 153°07'1514.5
2017-Feb-10 06:33S 31°34' E 153°13'  

Dump ship's entire track history